Time;durP1;ratioP1;P1;durP2;ratioP2;P2;SDS_P1;SDS_P2;PMS_P1;PMS_P2;Temp;Humidity;BMP_temperature;BMP_pressure;BME280_temperature;BME280_humidity;BME280_pressure;Samples;Min_cycle;Max_cycle;Signal;HPM_P1;HPM_P2
2022/10/23 00:01:25;;;;;;;0.17;0.17;;;;;;;10.82;100.00;101345.75;5035744;28;20337;-70
2022/10/23 00:04:02;;;;;;;0.10;0.10;;;;;;;10.79;100.00;101328.88;5049939;28;20029;-69
2022/10/23 00:06:28;;;;;;;0.10;0.10;;;;;;;10.95;100.00;101346.59;5062762;28;20028;-69
2022/10/23 00:08:53;;;;;;;0.10;0.10;;;;;;;10.94;100.00;101340.34;5031968;28;20403;-70
2022/10/23 00:11:22;;;;;;;0.10;0.10;;;;;;;10.99;100.00;101339.19;5053504;28;20544;-70
2022/10/23 00:13:48;;;;;;;0.00;0.00;;;;;;;11.06;100.00;101337.78;5052948;28;20039;-70
2022/10/23 00:16:14;;;;;;;0.10;0.10;;;;;;;11.10;100.00;101333.91;5056520;28;20484;-70
2022/10/23 00:18:39;;;;;;;0.10;0.10;;;;;;;11.08;100.00;101330.47;5056819;28;20074;-70
2022/10/23 00:21:07;;;;;;;0.10;0.10;;;;;;;11.07;100.00;101339.50;5052846;28;20626;-68
2022/10/23 00:23:32;;;;;;;0.10;0.10;;;;;;;11.07;100.00;101340.34;5052783;28;20024;-68
2022/10/23 00:25:59;;;;;;;0.10;0.10;;;;;;;11.06;100.00;101341.31;5056263;28;20551;-68
2022/10/23 00:28:24;;;;;;;0.10;0.10;;;;;;;10.93;100.00;101332.44;5049300;28;20120;-68
2022/10/23 00:30:49;;;;;;;0.10;0.10;;;;;;;10.84;100.00;101339.31;5038285;28;20031;-68
2022/10/23 00:33:15;;;;;;;0.15;0.10;;;;;;;10.68;100.00;101315.38;5053565;28;20503;-69
2022/10/23 00:35:41;;;;;;;0.10;0.10;;;;;;;10.75;100.00;101337.28;5053323;28;20104;-68
2022/10/23 00:38:07;;;;;;;0.10;0.10;;;;;;;10.70;100.00;101339.41;5034463;28;20033;-68
2022/10/23 00:40:33;;;;;;;0.17;0.17;;;;;;;10.69;100.00;101335.00;5041751;28;20062;-69
2022/10/23 00:42:59;;;;;;;0.00;0.00;;;;;;;10.72;100.00;101332.13;5020639;28;20029;-68
2022/10/23 00:45:32;;;;;;;0.10;0.10;;;;;;;10.66;100.00;101322.66;5049524;28;20052;-69
2022/10/23 00:48:00;;;;;;;0.10;0.10;;;;;;;10.73;100.00;101318.56;5054159;28;20028;-68
2022/10/23 00:50:27;;;;;;;0.10;0.10;;;;;;;10.73;100.00;101337.38;5022839;28;20059;-69
2022/10/23 00:52:53;;;;;;;0.10;0.10;;;;;;;10.44;100.00;101348.34;5051376;28;20028;-68
2022/10/23 00:55:19;;;;;;;0.03;0.03;;;;;;;10.14;100.00;101319.06;5033120;28;20078;-68
2022/10/23 00:57:47;;;;;;;0.10;0.10;;;;;;;10.20;100.00;101329.38;5035396;28;21565;-69
2022/10/23 01:00:24;;;;;;;0.10;0.10;;;;;;;10.18;100.00;101332.19;5034153;28;20023;-68
2022/10/23 01:02:50;;;;;;;0.10;0.10;;;;;;;10.23;100.00;101333.66;5031100;28;20177;-68
2022/10/23 01:05:15;;;;;;;0.10;0.10;;;;;;;10.13;100.00;101298.56;5034847;28;20119;-68
2022/10/23 01:08:37;;;;;;;0.10;0.10;;;;;;;10.35;100.00;101317.56;5042506;28;20036;-68
2022/10/23 01:11:11;;;;;;;0.10;0.10;;;;;;;10.50;100.00;101317.53;4961804;28;20093;-69
2022/10/23 01:13:49;;;;;;;0.10;0.10;;;;;;;10.63;100.00;101315.69;5038714;28;20032;-69
2022/10/23 01:16:27;;;;;;;0.10;0.10;;;;;;;10.59;100.00;101318.69;5053533;28;20038;-68
2022/10/23 01:19:31;;;;;;;0.10;0.10;;;;;;;10.48;100.00;101325.66;5051460;28;20076;-68
2022/10/23 01:22:16;;;;;;;0.10;0.10;;;;;;;10.17;100.00;101308.13;4969424;28;20331;-68
2022/10/23 01:24:49;;;;;;;0.20;0.20;;;;;;;10.31;100.00;101318.78;5028498;28;20764;-68
2022/10/23 01:27:18;;;;;;;0.10;0.10;;;;;;;10.17;100.00;101298.25;5034606;28;20020;-68
2022/10/23 01:29:50;;;;;;;0.10;0.10;;;;;;;10.29;100.00;101314.47;5052254;28;20331;-68
2022/10/23 01:32:25;;;;;;;0.10;0.10;;;;;;;10.24;100.00;101309.41;5056966;28;20024;-69
2022/10/23 01:35:00;;;;;;;0.10;0.10;;;;;;;10.27;100.00;101314.59;5051355;28;20154;-69
2022/10/23 01:37:34;;;;;;;0.10;0.10;;;;;;;10.27;100.00;101309.22;5054184;28;20499;-69
2022/10/23 01:40:02;;;;;;;0.03;0.03;;;;;;;10.32;100.00;101298.16;5054408;28;20025;-69
2022/10/23 01:42:32;;;;;;;0.10;0.10;;;;;;;10.40;100.00;101300.31;5034522;28;20020;-69
2022/10/23 01:45:06;;;;;;;0.10;0.10;;;;;;;10.46;100.00;101305.28;5036178;28;20036;-68
2022/10/23 01:47:31;;;;;;;;;;;;;;;10.49;100.00;101302.38;5039288;28;20047;-69
2022/10/23 01:49:57;;;;;;;0.20;0.20;;;;;;;10.42;100.00;101282.28;5049772;28;20292;-69
2022/10/23 01:52:23;;;;;;;0.20;0.20;;;;;;;10.46;100.00;101276.59;5053502;28;20550;-69
2022/10/23 01:54:50;;;;;;;0.10;0.10;;;;;;;10.65;100.00;101303.00;5036675;28;20461;-69
2022/10/23 01:57:16;;;;;;;0.20;0.10;;;;;;;10.66;100.00;101298.50;5037287;28;20036;-68
2022/10/23 01:59:47;;;;;;;0.10;0.10;;;;;;;10.67;100.00;101296.66;5055470;28;20064;-69
2022/10/23 02:02:14;;;;;;;0.10;0.10;;;;;;;10.67;100.00;101291.28;5058036;28;20062;-69
2022/10/23 02:04:55;;;;;;;0.10;0.10;;;;;;;10.58;100.00;101282.94;5045782;28;20056;-69
2022/10/23 02:07:21;;;;;;;0.10;0.10;;;;;;;10.61;100.00;101287.22;5044178;28;20032;-69
2022/10/23 02:09:46;;;;;;;0.10;0.10;;;;;;;10.58;100.00;101276.69;5062045;28;20025;-69
2022/10/23 02:12:28;;;;;;;0.10;0.10;;;;;;;10.50;100.00;101248.56;5060427;28;20024;-69
2022/10/23 02:15:02;;;;;;;0.10;0.10;;;;;;;10.65;100.00;101262.72;5039674;28;20028;-69
2022/10/23 02:17:33;;;;;;;;;;;;;;;10.53;100.00;101258.25;5044487;28;20039;-69
2022/10/23 02:20:22;;;;;;;0.10;0.10;;;;;;;10.43;100.00;101254.47;5042354;28;19920;-69
2022/10/23 02:23:12;;;;;;;0.10;0.10;;;;;;;10.26;100.00;101267.25;5060934;28;20511;-69
2022/10/23 02:25:46;;;;;;;0.10;0.10;;;;;;;10.16;100.00;101264.34;5060037;28;20032;-69
2022/10/23 02:28:15;;;;;;;0.00;0.00;;;;;;;10.11;100.00;101269.16;5043999;28;20510;-69
2022/10/23 02:30:43;;;;;;;0.08;0.08;;;;;;;10.04;100.00;101267.84;5040844;28;20032;-69
2022/10/23 02:33:09;;;;;;;0.00;0.00;;;;;;;9.93;100.00;101268.59;5038293;28;20051;-70
2022/10/23 02:35:34;;;;;;;0.10;0.10;;;;;;;9.94;100.00;101267.63;5040697;28;20105;-69
2022/10/23 02:38:00;;;;;;;0.10;0.10;;;;;;;9.98;100.00;101273.63;5056277;28;20115;-69
2022/10/23 02:40:39;;;;;;;0.10;0.10;;;;;;;9.79;100.00;101248.09;5054542;28;20032;-69
2022/10/23 02:43:13;;;;;;;0.03;0.03;;;;;;;9.97;100.00;101270.09;5036363;28;20056;-69
2022/10/23 02:45:45;;;;;;;0.10;0.10;;;;;;;9.93;100.00;101257.03;5033151;28;20028;-68
2022/10/23 02:48:14;;;;;;;0.10;0.10;;;;;;;10.05;100.00;101256.16;5032046;28;20024;-69
2022/10/23 02:50:55;;;;;;;0.10;0.10;;;;;;;10.12;100.00;101256.59;5050529;28;20032;-69
2022/10/23 02:53:59;;;;;;;0.10;0.10;;;;;;;10.29;100.00;101252.72;5037102;28;20039;-69
2022/10/23 02:56:37;;;;;;;0.10;0.10;;;;;;;10.26;100.00;101210.88;5054044;28;20031;-69
2022/10/23 02:59:30;;;;;;;0.10;0.10;;;;;;;10.47;100.00;101232.66;5054963;28;20273;-69
2022/10/23 03:02:09;;;;;;;0.10;0.10;;;;;;;10.54;100.00;101222.38;5050987;28;20044;-69
2022/10/23 03:04:36;;;;;;;0.10;0.10;;;;;;;10.60;100.00;101210.31;5052272;28;20361;-69
2022/10/23 03:07:02;;;;;;;0.10;0.10;;;;;;;10.54;100.00;101200.03;5041470;28;20036;-69
2022/10/23 03:09:28;;;;;;;0.03;0.03;;;;;;;10.75;100.00;101202.97;5043739;28;20412;-69
2022/10/23 03:11:53;;;;;;;0.10;0.10;;;;;;;10.82;100.00;101198.88;5060388;28;20032;-69
2022/10/23 03:14:19;;;;;;;0.10;0.10;;;;;;;10.80;100.00;101190.09;5059177;28;20354;-69
2022/10/23 03:16:44;;;;;;;0.10;0.10;;;;;;;10.87;100.00;101196.69;5058229;28;20043;-68
2022/10/23 03:19:10;;;;;;;0.10;0.10;;;;;;;10.93;100.00;101190.88;5063437;28;20356;-69
2022/10/23 03:21:36;;;;;;;0.10;0.10;;;;;;;10.84;100.00;101171.91;5057516;28;20080;-68
2022/10/23 03:24:01;;;;;;;0.10;0.10;;;;;;;11.01;100.00;101184.94;5058747;28;20029;-69
2022/10/23 03:26:26;;;;;;;0.10;0.10;;;;;;;11.04;100.00;101181.19;5058321;28;20530;-69
2022/10/23 03:28:52;;;;;;;0.10;0.10;;;;;;;11.04;100.00;101182.03;5042845;28;20029;-69
2022/10/23 03:31:17;;;;;;;0.05;0.05;;;;;;;10.95;100.00;101158.53;5042191;28;20035;-68
2022/10/23 03:33:42;;;;;;;0.10;0.10;;;;;;;11.05;100.00;101177.53;5057866;28;20028;-68
2022/10/23 03:36:08;;;;;;;0.10;0.10;;;;;;;11.01;100.00;101170.66;5056513;28;20117;-69
2022/10/23 03:38:33;;;;;;;0.10;0.10;;;;;;;10.95;100.00;101174.66;5058271;28;20025;-68
2022/10/23 03:40:59;;;;;;;0.10;0.10;;;;;;;11.02;100.00;101167.00;5036241;28;20155;-68
2022/10/23 03:43:24;;;;;;;0.03;0.03;;;;;;;10.99;100.00;101164.53;5054763;28;20035;-68
2022/10/23 03:45:50;;;;;;;0.10;0.10;;;;;;;11.00;100.00;101168.94;5041299;28;20484;-68
2022/10/23 03:48:16;;;;;;;0.10;0.10;;;;;;;11.01;100.00;101163.44;5060372;28;20036;-69
2022/10/23 03:50:41;;;;;;;0.10;0.10;;;;;;;10.93;100.00;101147.06;5060309;28;20363;-68
2022/10/23 03:53:06;;;;;;;0.17;0.17;;;;;;;11.03;100.00;101153.44;5055554;28;20496;-69
2022/10/23 03:55:32;;;;;;;0.10;0.10;;;;;;;11.07;100.00;101152.25;5052583;28;20028;-68
2022/10/23 03:57:57;;;;;;;0.10;0.10;;;;;;;11.16;100.00;101150.69;5059480;28;20035;-69
2022/10/23 04:00:22;;;;;;;0.10;0.10;;;;;;;11.21;100.00;101128.84;5051045;28;20056;-69
2022/10/23 04:02:47;;;;;;;0.10;0.10;;;;;;;11.26;100.00;101142.78;5032744;28;20044;-69
2022/10/23 04:05:13;;;;;;;0.10;0.10;;;;;;;11.29;100.00;101144.41;5044072;28;20539;-69
2022/10/23 04:07:38;;;;;;;0.10;0.10;;;;;;;11.29;100.00;101158.69;5061116;28;20364;-68
2022/10/23 04:10:04;;;;;;;0.10;0.10;;;;;;;11.27;100.00;101154.41;5059209;28;20111;-69
2022/10/23 04:12:29;;;;;;;0.10;0.10;;;;;;;11.23;100.00;101143.88;5057586;28;20344;-69
2022/10/23 04:14:55;;;;;;;0.03;0.03;;;;;;;11.24;100.00;101139.38;5064192;28;20181;-69
2022/10/23 04:17:20;;;;;;;0.10;0.10;;;;;;;11.27;100.00;101139.13;5069796;28;20039;-68
2022/10/23 04:19:45;;;;;;;0.10;0.10;;;;;;;11.29;100.00;101139.00;5065513;28;20017;-69
2022/10/23 04:22:11;;;;;;;0.10;0.10;;;;;;;11.31;100.00;101135.22;5066877;28;20060;-69
2022/10/23 04:24:36;;;;;;;0.10;0.10;;;;;;;11.30;100.00;101127.28;5058636;28;20533;-71
2022/10/23 04:27:02;;;;;;;0.10;0.10;;;;;;;11.31;100.00;101112.88;5065926;28;20060;-69
2022/10/23 04:29:30;;;;;;;0.10;0.10;;;;;;;11.42;100.00;101120.13;5052985;28;20024;-69
2022/10/23 04:31:55;;;;;;;0.10;0.10;;;;;;;11.36;100.00;101100.78;5067196;28;20037;-68
2022/10/23 04:34:21;;;;;;;0.10;0.10;;;;;;;11.48;100.00;101119.66;5072760;28;20035;-69
2022/10/23 04:36:46;;;;;;;0.10;0.10;;;;;;;11.50;100.00;101112.31;5062809;28;20102;-68
2022/10/23 04:39:12;;;;;;;0.10;0.10;;;;;;;11.51;100.00;101105.97;5060264;28;20021;-68
2022/10/23 04:41:37;;;;;;;0.05;0.05;;;;;;;11.36;100.00;101076.59;5066289;28;20024;-68
2022/10/23 04:44:03;;;;;;;0.20;0.20;;;;;;;11.51;100.00;101111.34;5043621;28;20476;-68
2022/10/23 04:46:28;;;;;;;0.10;0.10;;;;;;;11.55;100.00;101107.41;5061288;28;20041;-67
2022/10/23 04:48:53;;;;;;;0.10;0.10;;;;;;;11.53;100.00;101110.25;5061235;28;20059;-67
2022/10/23 04:51:19;;;;;;;0.10;0.10;;;;;;;11.64;100.00;101106.72;5050702;28;20059;-68
2022/10/23 04:53:44;;;;;;;0.10;0.10;;;;;;;11.69;100.00;101101.84;5062938;28;20472;-68
2022/10/23 04:56:14;;;;;;;0.10;0.10;;;;;;;11.60;100.00;101077.50;5066515;28;20098;-69
2022/10/23 04:58:40;;;;;;;0.10;0.10;;;;;;;11.65;100.00;101086.91;5068189;28;20516;-68
2022/10/23 05:01:06;;;;;;;0.10;0.10;;;;;;;11.76;100.00;101096.81;5056109;28;20134;-68
2022/10/23 05:03:32;;;;;;;0.08;0.08;;;;;;;11.75;100.00;101099.66;5049994;28;20035;-68
2022/10/23 05:05:57;;;;;;;0.10;0.10;;;;;;;11.77;100.00;101101.22;5054845;28;20637;-70
2022/10/23 05:08:22;;;;;;;0.10;0.10;;;;;;;11.74;100.00;101073.72;5053198;28;20044;-68
2022/10/23 05:10:51;;;;;;;0.20;0.10;;;;;;;11.81;100.00;101091.94;5054200;28;20032;-67
2022/10/23 05:13:18;;;;;;;0.10;0.10;;;;;;;11.83;100.00;101094.50;5051372;28;20583;-67
2022/10/23 05:15:48;;;;;;;0.10;0.10;;;;;;;11.83;100.00;101095.38;5053179;28;20031;-68
2022/10/23 05:18:20;;;;;;;0.10;0.10;;;;;;;11.89;100.00;101085.94;5034987;28;20050;-68
2022/10/23 05:20:47;;;;;;;0.10;0.10;;;;;;;11.91;100.00;101081.31;5037257;28;20028;-68
2022/10/23 05:23:15;;;;;;;0.10;0.10;;;;;;;11.78;100.00;101067.97;5032900;28;20035;-69
2022/10/23 05:25:40;;;;;;;0.10;0.10;;;;;;;11.89;100.00;101077.03;5033903;28;20041;-68
2022/10/23 05:28:06;;;;;;;0.13;0.13;;;;;;;11.87;100.00;101069.06;5050231;28;20032;-70
2022/10/23 05:30:32;;;;;;;0.00;0.00;;;;;;;11.90;100.00;101067.97;5051904;28;20314;-69
2022/10/23 05:32:59;;;;;;;0.10;0.10;;;;;;;11.84;100.00;101067.50;5019319;28;20408;-68
2022/10/23 05:35:25;;;;;;;0.10;0.10;;;;;;;11.88;100.00;101068.09;5052974;28;20044;-68
2022/10/23 05:37:52;;;;;;;0.10;0.10;;;;;;;11.93;100.00;101071.28;5052662;28;20061;-68
2022/10/23 05:40:17;;;;;;;0.10;0.10;;;;;;;11.89;100.00;101075.19;5050671;28;20029;-68
2022/10/23 05:42:43;;;;;;;0.10;0.10;;;;;;;11.93;100.00;101073.09;5055851;28;20490;-67
2022/10/23 05:45:08;;;;;;;0.10;0.10;;;;;;;11.87;100.00;101074.44;5057797;28;20511;-69
2022/10/23 05:47:34;;;;;;;0.10;0.10;;;;;;;11.96;100.00;101062.97;5050854;28;20512;-70
2022/10/23 05:49:59;;;;;;;0.10;0.10;;;;;;;11.97;100.00;101069.19;5052176;28;20483;-69
2022/10/23 05:52:24;;;;;;;0.00;0.00;;;;;;;11.89;100.00;101068.97;5050176;28;20032;-68
2022/10/23 05:54:50;;;;;;;0.20;0.20;;;;;;;11.98;100.00;101062.81;5050455;28;20028;-68
2022/10/23 05:57:16;;;;;;;0.10;0.10;;;;;;;11.91;100.00;101056.25;5051670;28;20210;-69
2022/10/23 05:59:41;;;;;;;0.10;0.10;;;;;;;11.91;100.00;101050.88;5037199;28;20020;-68
2022/10/23 06:02:07;;;;;;;0.10;0.10;;;;;;;11.99;100.00;101053.81;5047255;28;20524;-68
2022/10/23 06:04:34;;;;;;;0.15;0.15;;;;;;;11.95;100.00;101046.91;5055644;28;20043;-67
2022/10/23 06:06:59;;;;;;;0.10;0.10;;;;;;;11.91;100.00;101056.25;5039990;28;20531;-68
2022/10/23 06:09:24;;;;;;;0.00;0.00;;;;;;;11.84;100.00;101047.78;5053347;28;20028;-68
2022/10/23 06:11:50;;;;;;;0.03;0.03;;;;;;;11.87;100.00;101039.47;5047646;28;20029;-67
2022/10/23 06:14:15;;;;;;;0.10;0.10;;;;;;;11.91;100.00;101040.09;5051960;28;20033;-68
2022/10/23 06:16:40;;;;;;;0.10;0.10;;;;;;;11.86;100.00;101037.75;5052431;28;20032;-68
2022/10/23 06:19:09;;;;;;;0.00;0.00;;;;;;;11.90;100.00;101033.84;5054659;28;20123;-68
2022/10/23 06:21:35;;;;;;;0.10;0.10;;;;;;;11.98;100.00;101031.41;5054769;28;20087;-68
2022/10/23 06:24:01;;;;;;;0.00;0.00;;;;;;;12.00;100.00;101034.88;5043975;28;20492;-69
2022/10/23 06:26:26;;;;;;;0.10;0.10;;;;;;;11.98;100.00;101026.03;5054545;28;20028;-69
2022/10/23 06:28:51;;;;;;;0.10;0.10;;;;;;;12.02;100.00;101031.19;5054280;28;20067;-69
2022/10/23 06:31:18;;;;;;;0.10;0.10;;;;;;;11.94;100.00;101024.56;5055126;28;20035;-68
2022/10/23 06:33:44;;;;;;;0.10;0.10;;;;;;;11.98;100.00;101009.00;5054067;28;20058;-68
2022/10/23 06:36:09;;;;;;;0.10;0.10;;;;;;;12.05;100.00;101021.03;5055964;28;20055;-68
2022/10/23 06:38:38;;;;;;;0.10;0.10;;;;;;;12.11;100.00;101025.03;5052449;28;20036;-68
2022/10/23 06:41:05;;;;;;;0.10;0.10;;;;;;;12.14;100.00;101028.34;5051367;28;20508;-68
2022/10/23 06:43:31;;;;;;;0.10;0.10;;;;;;;12.10;100.00;101015.25;5037080;28;20051;-70
2022/10/23 06:45:59;;;;;;;0.10;0.10;;;;;;;12.15;100.00;101019.31;5052551;28;20648;-68
2022/10/23 06:48:24;;;;;;;0.10;0.10;;;;;;;12.18;100.00;101009.28;5056227;28;20055;-67
2022/10/23 06:50:50;;;;;;;0.10;0.10;;;;;;;12.17;100.00;101012.94;5060978;28;20594;-68
2022/10/23 06:53:15;;;;;;;0.10;0.10;;;;;;;12.12;100.00;101016.00;5057253;28;20166;-67
2022/10/23 06:55:40;;;;;;;0.20;0.20;;;;;;;12.12;100.00;101014.16;5054777;28;20056;-67
2022/10/23 06:58:09;;;;;;;0.10;0.10;;;;;;;12.24;100.00;101004.22;5058203;28;20067;-68
2022/10/23 07:00:36;;;;;;;0.00;0.00;;;;;;;12.16;100.00;101004.00;5054914;28;20055;-68
2022/10/23 07:03:01;;;;;;;0.10;0.10;;;;;;;12.02;100.00;100980.91;5050076;28;20691;-69
2022/10/23 07:05:27;;;;;;;0.10;0.10;;;;;;;12.11;100.00;100980.16;5055770;28;20024;-69
2022/10/23 07:07:52;;;;;;;0.10;0.10;;;;;;;12.27;100.00;101000.41;5053003;28;20033;-69
2022/10/23 07:10:17;;;;;;;0.10;0.10;;;;;;;12.33;100.00;100997.22;5049152;28;20157;-71
2022/10/23 07:12:43;;;;;;;0.10;0.10;;;;;;;12.22;100.00;100989.16;5050618;28;20021;-70
2022/10/23 07:15:09;;;;;;;0.05;0.05;;;;;;;12.33;100.00;100996.34;5034390;28;20036;-71
2022/10/23 07:17:34;;;;;;;0.10;0.10;;;;;;;12.38;100.00;100996.81;5038971;28;21747;-72
2022/10/23 07:19:59;;;;;;;0.00;0.00;;;;;;;12.34;100.00;100988.16;5035151;28;20027;-71
2022/10/23 07:22:25;;;;;;;0.10;0.10;;;;;;;12.59;100.00;100997.72;5028213;28;20052;-71
2022/10/23 07:24:50;;;;;;;0.00;0.00;;;;;;;12.55;100.00;101000.81;5037960;28;20091;-69
2022/10/23 07:27:16;;;;;;;0.10;0.10;;;;;;;12.52;100.00;101001.06;5036803;28;20144;-71
2022/10/23 07:29:41;;;;;;;0.05;0.05;;;;;;;12.62;100.00;100999.31;5052534;28;20729;-74
2022/10/23 07:32:06;;;;;;;0.10;0.10;;;;;;;12.55;100.00;100976.56;5054638;28;20029;-70
2022/10/23 07:34:32;;;;;;;0.10;0.10;;;;;;;12.53;100.00;100968.63;5060199;28;20115;-71
2022/10/23 07:36:57;;;;;;;0.10;0.10;;;;;;;12.60;100.00;100980.56;5059938;28;20036;-71
2022/10/23 07:39:22;;;;;;;0.05;0.05;;;;;;;12.53;100.00;100968.63;5055153;28;20059;-73
2022/10/23 07:41:48;;;;;;;0.10;0.10;;;;;;;12.73;100.00;100998.41;5055118;28;20037;-71
2022/10/23 07:44:14;;;;;;;0.10;0.10;;;;;;;12.77;100.00;100994.47;5035938;28;20261;-72
2022/10/23 07:46:39;;;;;;;0.08;0.08;;;;;;;12.71;100.00;100976.13;5056915;28;20030;-71
2022/10/23 07:49:05;;;;;;;0.10;0.10;;;;;;;12.82;100.00;100977.91;5037717;28;20123;-72
2022/10/23 07:51:30;;;;;;;0.10;0.10;;;;;;;12.81;100.00;100978.91;5040711;28;20044;-71
2022/10/23 07:53:55;;;;;;;0.10;0.10;;;;;;;12.80;100.00;100969.09;5035766;28;20070;-72
2022/10/23 07:56:28;;;;;;;0.10;0.10;;;;;;;12.80;100.00;100975.38;5036837;28;21019;-72
2022/10/23 07:58:53;;;;;;;0.10;0.10;;;;;;;12.87;100.00;100968.44;5037126;28;20251;-71
2022/10/23 08:01:30;;;;;;;0.10;0.10;;;;;;;12.98;100.00;100964.81;5051458;28;20735;-70
2022/10/23 08:03:56;;;;;;;0.10;0.10;;;;;;;12.87;100.00;100940.66;5032994;28;20020;-71
2022/10/23 08:06:21;;;;;;;0.00;0.00;;;;;;;13.09;100.00;100968.44;5035076;28;20034;-71
2022/10/23 08:08:47;;;;;;;0.00;0.00;;;;;;;13.15;100.00;100963.38;5051596;28;20071;-70
2022/10/23 08:11:13;;;;;;;0.10;0.10;;;;;;;13.18;100.00;100968.50;5038230;28;20464;-71
2022/10/23 08:13:39;;;;;;;0.20;0.20;;;;;;;13.12;100.00;100943.91;5040548;28;20024;-71
2022/10/23 08:16:04;;;;;;;0.10;0.10;;;;;;;13.30;100.00;100965.72;5040866;28;20027;-71
2022/10/23 08:18:30;;;;;;;0.10;0.10;;;;;;;13.31;100.00;100964.75;5061586;28;20373;-69
2022/10/23 08:21:00;;;;;;;0.00;0.00;;;;;;;13.34;100.00;100965.31;5041858;28;20028;-70
2022/10/23 08:23:26;;;;;;;0.10;0.10;;;;;;;13.31;100.00;100954.78;5035056;28;20033;-69
2022/10/23 08:25:57;;;;;;;0.00;0.00;;;;;;;13.35;100.00;100940.06;5059234;28;20447;-69
2022/10/23 08:28:22;;;;;;;0.10;0.10;;;;;;;13.49;100.00;100952.34;5063593;28;20035;-69
2022/10/23 08:30:47;;;;;;;0.10;0.10;;;;;;;13.62;100.00;100948.56;5052024;28;20024;-69
2022/10/23 08:33:13;;;;;;;0.10;0.10;;;;;;;13.71;100.00;100958.53;5061087;28;20392;-69
2022/10/23 08:35:38;;;;;;;0.10;0.10;;;;;;;13.79;100.00;100947.91;5062353;28;20464;-69
2022/10/23 08:38:04;;;;;;;0.10;0.10;;;;;;;13.76;100.00;100934.69;5061410;28;20064;-69
2022/10/23 08:40:30;;;;;;;0.10;0.10;;;;;;;13.75;100.00;100919.50;5036859;28;20066;-69
2022/10/23 08:43:05;;;;;;;0.10;0.10;;;;;;;13.97;100.00;100946.38;5039439;28;20484;-69
2022/10/23 08:45:50;;;;;;;0.03;0.03;;;;;;;14.00;100.00;100955.06;5050434;28;20029;-71
2022/10/23 08:48:41;;;;;;;0.00;0.00;;;;;;;14.08;100.00;100949.81;5030131;28;20033;-71
2022/10/23 08:51:13;;;;;;;0.10;0.10;;;;;;;14.03;100.00;100914.28;5033612;28;20036;-71
2022/10/23 08:53:58;;;;;;;0.08;0.08;;;;;;;14.15;100.00;100949.25;5037634;28;20035;-71
2022/10/23 08:56:32;;;;;;;0.10;0.10;;;;;;;14.15;100.00;100946.56;5042298;28;20043;-70
2022/10/23 08:59:04;;;;;;;0.10;0.10;;;;;;;14.07;100.00;100940.00;5044174;28;20020;-71
2022/10/23 09:02:01;;;;;;;0.17;0.17;;;;;;;14.15;100.00;100938.47;5039751;28;20167;-71
2022/10/23 09:04:27;;;;;;;0.10;0.10;;;;;;;14.20;100.00;100934.34;5015338;28;20452;-72
2022/10/23 09:07:11;;;;;;;0.10;0.10;;;;;;;14.17;100.00;100925.69;5060274;28;20032;-70
2022/10/23 09:09:54;;;;;;;0.10;0.10;;;;;;;14.16;100.00;100929.38;5037184;28;20029;-71
2022/10/23 09:12:22;;;;;;;0.08;0.08;;;;;;;14.21;100.00;100922.53;5042762;28;21505;-68
2022/10/23 09:15:22;;;;;;;0.10;0.10;;;;;;;14.27;100.00;100931.09;5056556;28;20036;-69
2022/10/23 09:17:48;;;;;;;0.10;0.10;;;;;;;14.31;100.00;100925.25;5052769;28;20131;-71
2022/10/23 09:20:23;;;;;;;0.00;0.00;;;;;;;14.37;100.00;100913.00;5037076;28;20039;-70
2022/10/23 09:22:53;;;;;;;0.10;0.10;;;;;;;14.40;100.00;100910.03;5055298;28;20650;-69
2022/10/23 09:25:23;;;;;;;0.00;0.00;;;;;;;14.44;100.00;100918.69;5039147;28;20511;-69
2022/10/23 09:27:52;;;;;;;0.10;0.10;;;;;;;14.41;100.00;100906.34;5058736;28;20094;-69
2022/10/23 09:30:34;;;;;;;0.10;0.10;;;;;;;14.48;100.00;100896.66;5057520;28;20028;-69
2022/10/23 09:33:00;;;;;;;0.10;0.10;;;;;;;14.46;100.00;100877.03;5052320;28;20024;-70
2022/10/23 09:35:28;;;;;;;0.10;0.10;;;;;;;14.53;100.00;100877.31;5042596;28;20028;-70
2022/10/23 09:37:54;;;;;;;0.10;0.10;;;;;;;14.58;100.00;100879.56;5055810;28;20028;-70
2022/10/23 09:40:40;;;;;;;0.10;0.10;;;;;;;14.65;100.00;100892.38;5040203;28;20035;-69
2022/10/23 09:43:17;;;;;;;0.05;0.05;;;;;;;14.65;100.00;100880.72;5033086;28;20036;-69
2022/10/23 09:45:42;;;;;;;0.00;0.00;;;;;;;14.76;100.00;100874.31;5058033;28;20036;-69
2022/10/23 09:48:17;;;;;;;0.00;0.00;;;;;;;14.68;100.00;100875.91;5039525;28;20153;-72
2022/10/23 09:50:55;;;;;;;0.00;0.00;;;;;;;14.75;100.00;100878.88;5026059;28;20034;-69
2022/10/23 09:53:37;;;;;;;0.10;0.10;;;;;;;14.73;100.00;100870.06;5039305;28;20083;-70
2022/10/23 09:56:23;;;;;;;0.00;0.00;;;;;;;14.83;100.00;100867.31;5025913;28;20490;-70
2022/10/23 09:59:00;;;;;;;0.10;0.10;;;;;;;14.79;100.00;100864.06;5048067;28;20031;-70
2022/10/23 10:01:28;;;;;;;0.00;0.00;;;;;;;14.85;100.00;100849.13;5041266;28;20124;-69
2022/10/23 10:03:54;;;;;;;0.10;0.10;;;;;;;14.85;100.00;100844.53;5055739;28;20067;-69
2022/10/23 10:06:27;;;;;;;0.00;0.00;;;;;;;15.04;100.00;100839.22;5037131;28;20033;-70
2022/10/23 10:08:55;;;;;;;0.00;0.00;;;;;;;15.05;100.00;100839.09;5049533;28;20028;-69
2022/10/23 10:11:28;;;;;;;0.10;0.10;;;;;;;15.04;100.00;100840.09;5076512;28;20387;-69
2022/10/23 10:13:57;;;;;;;0.10;0.10;;;;;;;15.05;100.00;100844.50;5053626;28;20024;-71
2022/10/23 10:16:40;;;;;;;0.05;0.05;;;;;;;15.05;100.00;100832.81;5055278;28;20040;-69
2022/10/23 10:19:35;;;;;;;0.10;0.10;;;;;;;15.06;100.00;100829.97;5044346;28;20150;-69
2022/10/23 10:22:19;;;;;;;;;;;;;;;15.08;100.00;100827.97;5044880;28;20032;-70
2022/10/23 10:25:00;;;;;;;0.10;0.10;;;;;;;15.21;100.00;100822.22;5060978;28;20678;-69
2022/10/23 10:27:47;;;;;;;0.00;0.00;;;;;;;15.20;100.00;100825.94;5042242;28;20331;-69
2022/10/23 10:30:21;;;;;;;0.10;0.10;;;;;;;15.08;100.00;100797.38;5040117;28;20068;-69
2022/10/23 10:33:29;;;;;;;0.10;0.10;;;;;;;15.24;100.00;100808.38;5024857;28;20028;-69
2022/10/23 10:35:59;;;;;;;0.10;0.10;;;;;;;15.21;100.00;100780.78;5019159;28;20476;-70
2022/10/23 10:38:30;;;;;;;0.10;0.10;;;;;;;15.28;100.00;100779.19;5040396;28;20384;-68
2022/10/23 10:41:28;;;;;;;0.00;0.00;;;;;;;15.29;100.00;100767.38;5056731;28;20522;-71
2022/10/23 10:44:32;;;;;;;0.08;0.08;;;;;;;15.37;100.00;100772.00;5062830;28;20488;-72
2022/10/23 10:47:09;;;;;;;0.10;0.10;;;;;;;15.30;100.00;100750.97;5030579;28;20039;-70
2022/10/23 10:49:38;;;;;;;0.00;0.00;;;;;;;15.38;100.00;100743.94;5063163;28;20028;-69
2022/10/23 10:52:15;;;;;;;0.10;0.10;;;;;;;15.45;100.00;100754.00;5044181;28;20029;-69
2022/10/23 10:54:49;;;;;;;0.00;0.00;;;;;;;15.49;100.00;100772.63;5039727;28;20490;-69
2022/10/23 10:57:27;;;;;;;0.28;0.10;;;;;;;15.54;100.00;100757.63;5059984;28;20028;-69
2022/10/23 10:59:54;;;;;;;0.10;0.10;;;;;;;15.72;100.00;100760.34;5038482;28;20024;-70
2022/10/23 11:02:43;;;;;;;0.00;0.00;;;;;;;15.73;100.00;100762.03;5034098;28;20553;-71
2022/10/23 11:05:39;;;;;;;0.10;0.03;;;;;;;15.84;100.00;100743.88;5049995;28;20059;-70
2022/10/23 11:08:12;;;;;;;0.13;0.10;;;;;;;16.03;100.00;100753.69;5038703;28;20028;-71
2022/10/23 11:10:43;;;;;;;0.10;0.10;;;;;;;16.07;100.00;100733.41;5044250;28;20024;-70
2022/10/23 11:13:24;;;;;;;0.10;0.00;;;;;;;16.09;100.00;100725.13;5041824;28;20583;-70
2022/10/23 11:15:50;;;;;;;0.10;0.10;;;;;;;16.27;100.00;100708.84;5046867;28;20024;-71
2022/10/23 11:18:23;;;;;;;0.00;0.00;;;;;;;16.61;100.00;100738.66;5030865;28;20016;-70
2022/10/23 11:20:56;;;;;;;0.10;0.10;;;;;;;16.82;100.00;100728.41;5046432;28;20035;-72
2022/10/23 11:23:37;;;;;;;0.08;0.08;;;;;;;17.03;100.00;100738.84;5044185;28;20029;-71
2022/10/23 11:26:20;;;;;;;0.05;0.05;;;;;;;17.18;100.00;100739.06;5072646;28;20023;-71
2022/10/23 11:29:08;;;;;;;0.00;0.00;;;;;;;17.26;100.00;100692.09;5057146;28;20034;-71
2022/10/23 11:31:37;;;;;;;0.10;0.10;;;;;;;17.32;100.00;100708.59;5031753;28;20032;-75